createdAt,value
2023-05-05T00:02:51.224Z,39.77
2023-05-05T00:07:53.304Z,39.90
2023-05-05T00:12:55.343Z,40.09
2023-05-05T00:17:57.312Z,40.11
2023-05-05T00:22:59.373Z,39.93
2023-05-05T00:28:02.288Z,39.87
2023-05-05T00:33:04.456Z,40.04
2023-05-05T00:38:07.534Z,40.03
2023-05-05T00:43:09.604Z,40.11
2023-05-05T00:48:12.045Z,39.89
2023-05-05T00:53:14.363Z,39.95
2023-05-05T00:58:16.409Z,39.89
2023-05-05T01:03:18.654Z,40.07
2023-05-05T01:08:52.601Z,40.36
2023-05-05T01:14:14.864Z,40.16
2023-05-05T01:19:19.652Z,39.98
2023-05-05T01:24:37.130Z,40.31
2023-05-05T01:29:48.180Z,40.13
2023-05-05T01:35:02.964Z,39.98
2023-05-05T01:40:30.605Z,39.96
2023-05-05T01:45:36.182Z,40.31
2023-05-05T01:50:39.848Z,40.47
2023-05-05T01:55:43.014Z,41.19
2023-05-05T02:00:45.143Z,41.70
2023-05-05T02:05:48.860Z,41.86
2023-05-05T02:10:51.675Z,41.49
2023-05-05T02:15:54.854Z,41.48
2023-05-05T02:20:56.955Z,41.46
2023-05-05T02:26:07.415Z,41.38
2023-05-05T02:31:11.401Z,41.41
2023-05-05T02:36:26.310Z,41.61
2023-05-05T02:41:29.967Z,41.50
2023-05-05T02:46:32.634Z,41.24
2023-05-05T02:51:34.884Z,41.34
2023-05-05T02:56:43.568Z,41.45
2023-05-05T03:01:57.516Z,41.05
2023-05-05T03:07:14.491Z,41.33
2023-05-05T03:12:22.845Z,41.04
2023-05-05T03:17:26.230Z,41.25
2023-05-05T03:22:28.525Z,41.14
2023-05-05T03:27:30.917Z,41.06
2023-05-05T03:32:33.137Z,41.13
2023-05-05T03:37:35.233Z,41.33
2023-05-05T03:42:37.433Z,41.19
2023-05-05T03:47:39.430Z,41.32
2023-05-05T03:52:41.481Z,41.03
2023-05-05T03:57:43.448Z,41.02
2023-05-05T04:02:45.874Z,41.12
2023-05-05T04:07:47.939Z,41.24
2023-05-05T04:12:49.927Z,41.04
2023-05-05T04:17:51.963Z,41.17
2023-05-05T04:22:53.788Z,41.46
2023-05-05T04:27:55.850Z,41.30
2023-05-05T04:32:57.814Z,41.19
2023-05-05T04:37:59.848Z,41.09
2023-05-05T04:43:02.441Z,41.29
2023-05-05T04:48:05.551Z,41.37
2023-05-05T04:53:07.621Z,41.07
2023-05-05T04:58:09.601Z,41.28
2023-05-05T05:03:11.983Z,41.14
2023-05-05T05:08:16.491Z,41.10
2023-05-05T05:13:18.597Z,41.14
2023-05-05T05:18:20.850Z,41.50
2023-05-05T05:23:22.883Z,41.42
2023-05-05T05:28:24.832Z,41.33
2023-05-05T05:33:26.829Z,41.51
2023-05-05T05:38:28.791Z,41.16
2023-05-05T05:43:31.131Z,41.25
2023-05-05T05:48:33.245Z,41.22
2023-05-05T05:53:35.406Z,41.21
2023-05-05T05:58:37.592Z,41.39
2023-05-05T06:03:39.796Z,41.46
2023-05-05T06:08:41.838Z,41.28
2023-05-05T06:13:44.083Z,41.65
2023-05-05T06:18:46.098Z,41.74
2023-05-05T06:23:48.071Z,41.70
2023-05-05T06:28:50.032Z,41.76
2023-05-05T06:33:52.076Z,41.47
2023-05-05T06:38:54.156Z,41.51
2023-05-05T06:43:55.994Z,41.31
2023-05-05T06:48:58.004Z,41.66
2023-05-05T06:54:00.173Z,41.45
2023-05-05T06:59:02.099Z,41.50
2023-05-05T07:04:04.149Z,41.40
2023-05-05T07:09:06.443Z,41.71
2023-05-05T07:14:08.392Z,41.73
2023-05-05T07:19:10.358Z,41.40
2023-05-05T07:24:12.346Z,42.18
2023-05-05T07:29:14.434Z,41.95
2023-05-05T07:34:16.274Z,41.96
2023-05-05T07:39:19.840Z,42.84
2023-05-05T07:44:21.815Z,44.47
2023-05-05T07:49:23.757Z,44.23
2023-05-05T07:54:25.750Z,44.14
2023-05-05T07:59:27.904Z,44.60
2023-05-05T08:04:29.935Z,44.88
2023-05-05T08:09:32.505Z,44.96
2023-05-05T08:14:34.545Z,44.99
2023-05-05T08:19:36.449Z,44.94
2023-05-05T08:24:38.384Z,44.85
2023-05-05T08:29:40.809Z,44.65
2023-05-05T08:34:42.982Z,44.28
2023-05-05T08:39:45.225Z,43.88
2023-05-05T08:44:47.208Z,44.27
2023-05-05T08:49:49.608Z,46.81
2023-05-05T08:54:55.666Z,47.40
2023-05-05T08:59:59.255Z,46.89
2023-05-05T09:05:05.455Z,46.34
2023-05-05T09:10:10.085Z,46.10
2023-05-05T09:15:14.855Z,45.66
2023-05-05T09:20:17.021Z,47.88
2023-05-05T09:25:19.312Z,48.41
2023-05-05T09:30:25.809Z,48.49
2023-05-05T09:35:27.676Z,48.62
2023-05-05T09:40:46.870Z,48.52
2023-05-05T09:45:49.752Z,48.32
2023-05-05T09:50:52.112Z,48.51
2023-05-05T09:55:58.322Z,47.59
2023-05-05T10:01:00.937Z,47.49
2023-05-05T10:06:04.994Z,47.27
2023-05-05T10:11:07.507Z,47.19
2023-05-05T10:16:12.521Z,47.21
2023-05-05T10:21:20.230Z,47.43
2023-05-05T10:26:23.838Z,47.76
2023-05-05T10:31:45.853Z,48.10
2023-05-05T10:36:49.598Z,48.17
2023-05-05T10:41:52.572Z,48.50
2023-05-05T10:46:54.758Z,48.56
2023-05-05T10:52:14.537Z,48.99
2023-05-05T10:57:22.716Z,48.86
2023-05-05T11:02:31.664Z,48.83
2023-05-05T11:07:34.869Z,48.39
2023-05-05T11:13:02.862Z,48.31
2023-05-05T11:18:07.503Z,48.48
2023-05-05T11:23:10.449Z,48.54
2023-05-05T11:28:31.285Z,48.26
2023-05-05T11:33:37.987Z,47.99
2023-05-05T11:38:59.728Z,47.57
2023-05-05T11:44:17.944Z,47.69
2023-05-05T11:49:33.218Z,47.29
2023-05-05T11:54:37.125Z,46.99
2023-05-05T11:59:51.977Z,46.76
2023-05-05T12:04:54.417Z,46.37
2023-05-05T12:09:56.554Z,46.31
2023-05-05T12:14:58.880Z,46.26
2023-05-05T12:20:00.878Z,46.82
2023-05-05T12:25:05.515Z,47.02
2023-05-05T12:30:20.738Z,48.05
2023-05-05T12:35:22.803Z,48.27
2023-05-05T12:40:45.798Z,48.74
2023-05-05T12:45:48.005Z,48.70
2023-05-05T12:50:50.069Z,48.30
2023-05-05T12:55:52.361Z,47.66
2023-05-05T13:01:12.863Z,48.52
2023-05-05T13:06:21.457Z,47.99
2023-05-05T13:11:23.315Z,48.43
2023-05-05T13:16:25.502Z,49.45
2023-05-05T13:21:28.411Z,48.37
2023-05-05T13:26:30.305Z,49.39
2023-05-05T13:31:32.282Z,49.05
2023-05-05T13:36:35.120Z,49.52
2023-05-05T13:41:37.221Z,48.92
2023-05-05T13:46:39.444Z,49.32
2023-05-05T13:51:41.603Z,49.36
2023-05-05T13:56:44.045Z,48.85
2023-05-05T14:01:45.968Z,49.21
2023-05-05T14:06:48.259Z,49.23
2023-05-05T14:11:50.463Z,49.72
2023-05-05T14:16:52.796Z,49.74
2023-05-05T14:21:54.810Z,49.29
2023-05-05T14:26:57.374Z,49.61
2023-05-05T14:31:59.453Z,49.36
2023-05-05T14:37:01.716Z,48.68
2023-05-05T14:42:04.055Z,48.35
2023-05-05T14:47:06.044Z,48.44
2023-05-05T14:52:08.078Z,48.53
2023-05-05T14:57:10.024Z,48.52
2023-05-05T15:02:11.892Z,48.87
2023-05-05T15:07:13.792Z,48.62
2023-05-05T15:12:15.809Z,48.95
2023-05-05T15:17:17.988Z,49.13
2023-05-05T15:22:19.991Z,48.79
2023-05-05T15:27:22.119Z,48.95
2023-05-05T15:32:24.153Z,48.97
2023-05-05T15:37:28.690Z,48.63
2023-05-05T15:42:33.021Z,47.83
2023-05-05T15:47:35.110Z,47.66
2023-05-05T15:52:37.193Z,47.82
2023-05-05T15:57:42.029Z,47.29
2023-05-05T16:02:45.250Z,46.89
2023-05-05T16:07:47.485Z,47.01
2023-05-05T16:12:49.991Z,47.14
2023-05-05T16:17:52.151Z,47.03
2023-05-05T16:22:54.289Z,46.83
2023-05-05T16:27:57.859Z,46.57
2023-05-05T16:32:59.876Z,46.20
2023-05-05T16:38:01.826Z,46.08
2023-05-05T16:43:04.293Z,46.37
2023-05-05T16:48:08.788Z,47.01
2023-05-05T16:53:11.427Z,46.75
2023-05-05T16:58:13.339Z,47.09
2023-05-05T17:03:16.975Z,46.96
2023-05-05T17:08:19.168Z,47.50
2023-05-05T17:13:21.119Z,46.77
2023-05-05T17:18:26.160Z,46.76
2023-05-05T17:23:28.428Z,46.90
2023-05-05T17:28:30.300Z,46.08
2023-05-05T17:33:32.523Z,45.20
2023-05-05T17:38:34.700Z,45.00
2023-05-05T17:43:37.002Z,44.87
2023-05-05T17:48:39.060Z,44.94
2023-05-05T17:53:41.253Z,44.66
2023-05-05T17:58:43.302Z,44.77
2023-05-05T18:03:45.466Z,44.41
2023-05-05T18:08:48.048Z,44.60
2023-05-05T18:13:50.156Z,44.57
2023-05-05T18:18:52.240Z,44.48
2023-05-05T18:23:57.330Z,44.28
2023-05-05T18:29:04.007Z,44.35
2023-05-05T18:34:06.231Z,44.33
2023-05-05T18:39:08.999Z,44.41
2023-05-05T18:44:11.199Z,44.03
2023-05-05T18:49:13.452Z,44.01
2023-05-05T18:54:15.504Z,43.97
2023-05-05T18:59:17.505Z,43.98
2023-05-05T19:04:30.723Z,44.09
2023-05-05T19:09:33.922Z,43.71
2023-05-05T19:14:35.980Z,43.77
2023-05-05T19:19:37.988Z,43.59
2023-05-05T19:24:40.093Z,43.80
2023-05-05T19:29:42.258Z,43.75
2023-05-05T19:34:44.192Z,43.51
2023-05-05T19:39:46.287Z,43.48
2023-05-05T19:44:48.445Z,43.40
2023-05-05T19:49:50.653Z,43.60
2023-05-05T19:54:52.651Z,43.38
2023-05-05T19:59:54.571Z,43.30
2023-05-05T20:04:58.094Z,43.29
2023-05-05T20:10:01.028Z,43.57
2023-05-05T20:15:03.484Z,43.39
2023-05-05T20:20:05.836Z,43.52
2023-05-05T20:25:08.270Z,43.24
2023-05-05T20:30:11.068Z,43.08
2023-05-05T20:35:13.363Z,43.09
2023-05-05T20:40:15.544Z,43.26
2023-05-05T20:45:17.668Z,43.67
2023-05-05T20:50:20.858Z,43.69
2023-05-05T20:55:23.064Z,43.88
2023-05-05T21:00:25.338Z,43.68
2023-05-05T21:05:27.433Z,44.05
2023-05-05T21:10:29.562Z,43.94
2023-05-05T21:15:33.243Z,44.31
2023-05-05T21:20:36.281Z,44.17
2023-05-05T21:25:38.225Z,44.21
2023-05-05T21:30:40.301Z,44.14
2023-05-05T21:35:42.388Z,44.02
2023-05-05T21:40:44.670Z,43.58
2023-05-05T21:45:47.044Z,43.91
2023-05-05T21:50:49.046Z,43.84
2023-05-05T21:55:51.441Z,43.57
2023-05-05T22:00:53.470Z,43.75
2023-05-05T22:05:55.410Z,43.85
2023-05-05T22:10:57.353Z,43.66
2023-05-05T22:15:59.389Z,43.69
2023-05-05T22:21:02.364Z,43.67
2023-05-05T22:26:05.072Z,43.42
2023-05-05T22:31:07.213Z,43.53
2023-05-05T22:36:10.510Z,43.52
2023-05-05T22:41:12.864Z,43.19
2023-05-05T22:46:15.461Z,43.43
2023-05-05T22:51:17.370Z,43.17
2023-05-05T22:56:19.573Z,43.22
2023-05-05T23:01:21.663Z,43.27
2023-05-05T23:06:24.015Z,43.32
2023-05-05T23:11:26.792Z,43.34
2023-05-05T23:16:28.907Z,43.31
2023-05-05T23:21:33.989Z,43.29
2023-05-05T23:26:38.225Z,43.18
2023-05-05T23:31:40.311Z,43.06
2023-05-05T23:36:42.406Z,43.28
2023-05-05T23:41:44.493Z,43.28
2023-05-05T23:46:46.920Z,43.01
2023-05-05T23:51:49.109Z,43.18
2023-05-05T23:56:50.981Z,43.13
